createdAt,value
2017-11-06T00:00:44.762Z,989.51
2017-11-06T00:01:51.606Z,989.56
2017-11-06T00:02:58.433Z,989.54
2017-11-06T00:04:05.302Z,989.54
2017-11-06T00:05:12.137Z,989.51
2017-11-06T00:06:18.913Z,989.52
2017-11-06T00:07:25.821Z,989.57
2017-11-06T00:08:32.586Z,989.66
2017-11-06T00:09:39.514Z,989.57
2017-11-06T00:10:46.349Z,989.65
2017-11-06T00:11:53.140Z,989.56
2017-11-06T00:12:59.997Z,989.58
2017-11-06T00:14:06.672Z,989.57
2017-11-06T00:15:14.075Z,989.54
2017-11-06T00:16:20.936Z,989.64
2017-11-06T00:17:27.701Z,989.56
2017-11-06T00:18:34.553Z,989.59
2017-11-06T00:19:41.488Z,989.61
2017-11-06T00:20:48.316Z,989.60
2017-11-06T00:21:55.040Z,989.59
2017-11-06T00:23:01.899Z,989.61
2017-11-06T00:24:08.769Z,989.58
2017-11-06T00:25:15.433Z,989.68
2017-11-06T00:26:22.453Z,989.67
2017-11-06T00:27:29.269Z,989.61
2017-11-06T00:28:35.988Z,989.60
2017-11-06T00:29:42.736Z,989.55
2017-11-06T00:31:56.564Z,989.56
2017-11-06T00:33:03.467Z,989.62
2017-11-06T00:34:10.529Z,989.62
2017-11-06T00:35:17.197Z,989.61
2017-11-06T00:36:24.565Z,989.67
2017-11-06T00:37:31.445Z,989.64
2017-11-06T00:38:38.162Z,989.66
2017-11-06T00:39:45.034Z,989.69
2017-11-06T00:40:51.995Z,989.70
2017-11-06T00:41:58.800Z,989.75
2017-11-06T00:43:05.877Z,989.78
2017-11-06T00:44:12.629Z,989.77
2017-11-06T00:45:19.396Z,989.85
2017-11-06T00:46:26.174Z,989.80
2017-11-06T00:47:33.091Z,989.85
2017-11-06T00:48:40.051Z,989.91
2017-11-06T00:49:46.958Z,989.94
2017-11-06T00:50:53.953Z,989.89
2017-11-06T00:52:00.753Z,989.92
2017-11-06T00:53:07.677Z,989.92
2017-11-06T00:54:14.345Z,989.89
2017-11-06T00:55:21.315Z,989.94
2017-11-06T00:56:28.172Z,989.94
2017-11-06T00:57:34.968Z,989.98
2017-11-06T00:58:42.052Z,989.94
2017-11-06T00:59:48.790Z,989.90
2017-11-06T01:00:55.666Z,989.91
2017-11-06T01:02:02.458Z,989.88
2017-11-06T01:03:09.401Z,989.99
2017-11-06T01:04:16.364Z,989.96
2017-11-06T01:05:23.186Z,990.03
2017-11-06T01:06:29.949Z,990.07
2017-11-06T01:07:36.825Z,990.07
2017-11-06T01:08:43.897Z,990.06
2017-11-06T01:09:50.789Z,990.09
2017-11-06T01:10:57.599Z,990.09
2017-11-06T01:12:04.406Z,990.08
2017-11-06T01:13:11.166Z,990.06
2017-11-06T01:14:18.106Z,990.18
2017-11-06T01:15:24.927Z,990.22
2017-11-06T01:16:31.926Z,990.14
2017-11-06T01:17:38.781Z,990.15
2017-11-06T01:18:45.567Z,990.30
2017-11-06T01:19:52.437Z,990.30
2017-11-06T01:20:59.266Z,990.26
2017-11-06T01:22:06.129Z,990.30
2017-11-06T01:23:12.962Z,990.24
2017-11-06T01:24:19.805Z,990.25
2017-11-06T01:25:26.730Z,990.31
2017-11-06T01:26:33.579Z,990.32
2017-11-06T01:27:40.730Z,990.39
2017-11-06T01:28:47.447Z,990.42
2017-11-06T01:29:54.410Z,990.43
2017-11-06T01:31:01.215Z,990.54
2017-11-06T01:32:08.214Z,990.40
2017-11-06T01:33:14.964Z,990.46
2017-11-06T01:34:21.977Z,990.43
2017-11-06T01:35:28.715Z,990.43
2017-11-06T01:36:35.678Z,990.53
2017-11-06T01:37:42.529Z,990.52
2017-11-06T01:38:49.392Z,990.52
2017-11-06T01:39:56.233Z,990.53
2017-11-06T01:41:03.357Z,990.51
2017-11-06T01:42:10.270Z,990.61
2017-11-06T01:43:17.185Z,990.56
2017-11-06T01:44:24.030Z,990.62
2017-11-06T01:45:30.794Z,990.53
2017-11-06T01:46:37.597Z,990.46
2017-11-06T01:47:44.430Z,990.56
2017-11-06T01:48:51.415Z,990.52
2017-11-06T01:49:58.321Z,990.44
2017-11-06T01:51:05.402Z,990.50
2017-11-06T01:52:12.300Z,990.45
2017-11-06T01:53:19.222Z,990.43
2017-11-06T01:54:26.085Z,990.43
2017-11-06T01:55:33.237Z,990.38
2017-11-06T01:56:40.168Z,990.41
2017-11-06T01:57:47.049Z,990.45
2017-11-06T01:58:54.052Z,990.47
2017-11-06T02:00:01.017Z,990.42
2017-11-06T02:01:07.880Z,990.50
2017-11-06T02:02:14.862Z,990.43
2017-11-06T02:03:21.898Z,990.38
2017-11-06T02:04:28.786Z,990.36
2017-11-06T02:05:35.966Z,990.37
2017-11-06T02:06:42.850Z,990.36
2017-11-06T02:07:49.822Z,990.37
2017-11-06T02:08:56.567Z,990.38
2017-11-06T02:10:03.350Z,990.38
2017-11-06T02:11:10.244Z,990.36
2017-11-06T02:12:17.193Z,990.37
2017-11-06T02:13:24.016Z,990.38
2017-11-06T02:14:30.999Z,990.41
2017-11-06T02:15:38.118Z,990.42
2017-11-06T02:16:45.041Z,990.44
2017-11-06T02:17:51.886Z,990.41
2017-11-06T02:18:58.635Z,990.40
2017-11-06T02:20:05.554Z,990.45
2017-11-06T02:21:12.529Z,990.37
2017-11-06T02:22:19.345Z,990.44
2017-11-06T02:23:26.448Z,990.41
2017-11-06T02:24:33.409Z,990.47
2017-11-06T02:25:40.601Z,990.43
2017-11-06T02:26:47.682Z,990.40
2017-11-06T02:27:54.617Z,990.48
2017-11-06T02:29:01.653Z,990.45
2017-11-06T02:30:08.685Z,990.51
2017-11-06T02:31:15.793Z,990.52
2017-11-06T02:32:22.869Z,990.51
2017-11-06T02:33:29.931Z,990.59
2017-11-06T02:34:36.890Z,990.65
2017-11-06T02:35:43.721Z,990.61
2017-11-06T02:36:50.618Z,990.59
2017-11-06T02:37:57.746Z,990.53
2017-11-06T02:39:04.581Z,990.64
2017-11-06T02:40:11.425Z,990.65
2017-11-06T02:41:18.248Z,990.65
2017-11-06T02:42:25.248Z,990.68
2017-11-06T02:43:32.137Z,990.72
2017-11-06T02:44:39.081Z,990.78
2017-11-06T02:45:46.077Z,990.73
2017-11-06T02:46:52.949Z,990.72
2017-11-06T02:47:59.800Z,990.74
2017-11-06T02:49:06.786Z,990.72
2017-11-06T02:50:13.677Z,990.79
2017-11-06T02:51:20.469Z,990.75
2017-11-06T02:52:27.329Z,990.71
2017-11-06T02:53:34.207Z,990.68
2017-11-06T02:54:41.139Z,990.70
2017-11-06T02:55:47.977Z,990.76
2017-11-06T02:56:54.853Z,990.80
2017-11-06T02:58:01.845Z,990.72
2017-11-06T02:59:08.718Z,990.82
2017-11-06T03:00:15.751Z,990.84
2017-11-06T03:01:22.693Z,990.92
2017-11-06T03:02:29.553Z,990.92
2017-11-06T03:03:36.344Z,990.95
2017-11-06T03:04:43.484Z,991.00
2017-11-06T03:05:49.709Z,991.04
2017-11-06T03:06:56.953Z,991.01
2017-11-06T03:08:03.450Z,991.05
2017-11-06T03:09:10.346Z,991.05
2017-11-06T03:10:17.345Z,991.02
2017-11-06T03:11:24.302Z,991.07
2017-11-06T03:12:31.168Z,990.98
2017-11-06T03:13:38.023Z,991.02
2017-11-06T03:14:44.878Z,990.97
2017-11-06T03:15:51.677Z,990.95
2017-11-06T03:16:58.595Z,991.00
2017-11-06T03:18:05.450Z,990.98
2017-11-06T03:19:12.316Z,990.99
2017-11-06T03:20:19.098Z,991.03
2017-11-06T03:21:26.092Z,990.96
2017-11-06T03:22:33.107Z,991.04
2017-11-06T03:23:40.102Z,991.06
2017-11-06T03:24:47.206Z,991.08
2017-11-06T03:25:53.982Z,991.02
2017-11-06T03:27:00.800Z,991.08
2017-11-06T03:28:07.574Z,991.05
2017-11-06T03:29:14.414Z,991.18
2017-11-06T03:30:21.528Z,991.08
2017-11-06T03:31:28.406Z,991.09
2017-11-06T03:32:35.259Z,991.13
2017-11-06T03:33:42.176Z,991.14
2017-11-06T03:34:49.079Z,991.13
2017-11-06T03:35:56.138Z,991.15
2017-11-06T03:37:03.174Z,991.18
2017-11-06T03:38:10.021Z,991.22
2017-11-06T03:39:16.782Z,991.21
2017-11-06T03:40:23.533Z,991.18
2017-11-06T03:41:30.625Z,991.23
2017-11-06T03:42:37.453Z,991.25
2017-11-06T03:43:44.354Z,991.25
2017-11-06T03:44:51.216Z,991.20
2017-11-06T03:45:58.048Z,991.23
2017-11-06T03:47:04.874Z,991.22
2017-11-06T03:48:11.762Z,991.19
2017-11-06T03:49:18.539Z,991.26
2017-11-06T03:50:25.600Z,991.20
2017-11-06T03:51:32.502Z,991.31
2017-11-06T03:52:39.458Z,991.30
2017-11-06T03:53:46.516Z,991.29
2017-11-06T03:54:53.478Z,991.33
2017-11-06T03:56:00.535Z,991.36
2017-11-06T03:57:07.317Z,991.26
2017-11-06T03:58:14.105Z,991.32
2017-11-06T03:59:20.979Z,991.28
2017-11-06T04:00:27.995Z,991.31
2017-11-06T04:01:35.056Z,991.37
2017-11-06T04:02:41.936Z,991.39
2017-11-06T04:03:49.015Z,991.41
2017-11-06T04:04:55.922Z,991.40
2017-11-06T04:06:02.998Z,991.43
2017-11-06T04:07:09.897Z,991.47
2017-11-06T04:08:16.914Z,991.48
2017-11-06T04:09:23.901Z,991.51
2017-11-06T04:10:30.624Z,991.56
2017-11-06T04:11:38.692Z,991.48
2017-11-06T04:12:44.536Z,991.58
2017-11-06T04:13:51.432Z,991.50
2017-11-06T04:14:58.481Z,991.53
2017-11-06T04:16:05.593Z,991.54
2017-11-06T04:17:12.582Z,991.52
2017-11-06T04:18:19.285Z,991.46
2017-11-06T04:19:26.134Z,991.50
2017-11-06T04:20:33.022Z,991.54
2017-11-06T04:21:40.033Z,991.61
2017-11-06T04:22:46.992Z,991.61
2017-11-06T04:23:53.711Z,991.61
2017-11-06T04:25:00.613Z,991.56
2017-11-06T04:26:07.635Z,991.59
2017-11-06T04:27:14.509Z,991.63
2017-11-06T04:28:21.484Z,991.57
2017-11-06T04:29:28.385Z,991.65
2017-11-06T04:30:35.341Z,991.64
2017-11-06T04:31:42.213Z,991.62
2017-11-06T04:32:49.005Z,991.65
2017-11-06T04:33:55.925Z,991.69
2017-11-06T04:35:02.776Z,991.62
2017-11-06T04:36:09.825Z,991.70
2017-11-06T04:37:16.912Z,991.69
2017-11-06T04:38:23.957Z,991.68
2017-11-06T04:39:30.925Z,991.69
2017-11-06T04:40:37.764Z,991.70
2017-11-06T04:41:44.653Z,991.69
2017-11-06T04:42:51.558Z,991.71
2017-11-06T04:43:58.390Z,991.69
2017-11-06T04:45:05.294Z,991.77
2017-11-06T04:46:12.237Z,991.74
2017-11-06T04:47:19.086Z,991.73
2017-11-06T04:48:25.982Z,991.80
2017-11-06T04:49:32.958Z,991.73
2017-11-06T04:50:39.943Z,991.76
2017-11-06T04:51:46.901Z,991.77
2017-11-06T04:52:53.713Z,991.78
2017-11-06T04:54:00.622Z,991.77
2017-11-06T04:55:07.426Z,991.85
2017-11-06T04:56:14.273Z,991.84
2017-11-06T04:57:21.090Z,991.80
2017-11-06T04:58:28.033Z,991.87
2017-11-06T04:59:34.953Z,991.84
2017-11-06T05:00:41.776Z,991.88
2017-11-06T05:01:48.710Z,991.80
2017-11-06T05:02:55.577Z,991.80
2017-11-06T05:04:02.586Z,991.76
2017-11-06T05:05:09.495Z,991.77
2017-11-06T05:06:16.344Z,991.78
2017-11-06T05:07:23.116Z,991.83
2017-11-06T05:08:29.902Z,991.79
2017-11-06T05:09:36.854Z,991.91
2017-11-06T05:10:43.753Z,991.91
2017-11-06T05:11:50.718Z,991.93
2017-11-06T05:12:57.667Z,992.01
2017-11-06T05:14:04.477Z,991.94
2017-11-06T05:15:11.423Z,992.01
2017-11-06T05:16:18.270Z,991.91
2017-11-06T05:17:25.114Z,991.94
2017-11-06T05:18:32.026Z,991.95
2017-11-06T05:19:38.945Z,991.93
2017-11-06T05:20:45.862Z,992.01
2017-11-06T05:21:52.873Z,991.97
2017-11-06T05:22:59.710Z,992.03
2017-11-06T05:24:06.578Z,991.94
2017-11-06T05:25:13.390Z,992.04
2017-11-06T05:26:20.230Z,992.01
2017-11-06T05:27:27.154Z,992.04
2017-11-06T05:28:34.241Z,992.05
2017-11-06T05:29:41.142Z,992.11
2017-11-06T05:30:48.019Z,992.20
2017-11-06T05:31:55.083Z,992.08
2017-11-06T05:33:01.878Z,992.17
2017-11-06T05:34:08.682Z,992.12
2017-11-06T05:35:15.690Z,992.11
2017-11-06T05:36:22.620Z,992.15
2017-11-06T05:37:29.486Z,992.14
2017-11-06T05:38:36.261Z,992.13
2017-11-06T05:39:43.268Z,992.19
2017-11-06T05:40:50.081Z,992.14
2017-11-06T05:41:57.194Z,992.13
2017-11-06T05:43:04.284Z,992.18
2017-11-06T05:44:11.218Z,992.16
2017-11-06T05:45:18.174Z,992.22
2017-11-06T05:46:25.138Z,992.19
2017-11-06T05:47:31.939Z,992.20
2017-11-06T05:48:38.803Z,992.30
2017-11-06T05:49:45.713Z,992.29
2017-11-06T05:50:52.569Z,992.39
2017-11-06T05:51:59.674Z,992.37
2017-11-06T05:53:06.536Z,992.36
2017-11-06T05:54:13.386Z,992.38
2017-11-06T05:55:20.186Z,992.41
2017-11-06T05:56:27.146Z,992.43
2017-11-06T05:57:33.925Z,992.37
2017-11-06T05:58:40.745Z,992.43
2017-11-06T05:59:47.741Z,992.52
2017-11-06T06:00:54.597Z,992.59
2017-11-06T06:02:01.577Z,992.55
2017-11-06T06:03:08.349Z,992.53
2017-11-06T06:04:15.073Z,992.62
2017-11-06T06:05:21.879Z,992.65
2017-11-06T06:06:28.681Z,992.65
2017-11-06T06:07:35.599Z,992.68
2017-11-06T06:08:42.566Z,992.62
2017-11-06T06:09:49.489Z,992.66
2017-11-06T06:10:56.360Z,992.73
2017-11-06T06:12:03.390Z,992.68
2017-11-06T06:13:10.140Z,992.65
2017-11-06T06:14:16.986Z,992.76
2017-11-06T06:15:23.821Z,992.71
2017-11-06T06:16:30.906Z,992.76
2017-11-06T06:17:37.945Z,992.76
2017-11-06T06:18:44.765Z,992.80
2017-11-06T06:19:51.534Z,992.87
2017-11-06T06:20:58.433Z,992.76
2017-11-06T06:22:05.253Z,992.76
2017-11-06T06:23:12.022Z,992.84
2017-11-06T06:24:18.806Z,992.92
2017-11-06T06:25:25.525Z,992.92
2017-11-06T06:26:32.548Z,992.93
2017-11-06T06:27:39.546Z,992.93
2017-11-06T06:28:46.373Z,992.96
2017-11-06T06:29:53.258Z,993.02
2017-11-06T06:31:00.213Z,992.98
2017-11-06T06:32:07.098Z,993.14
2017-11-06T06:33:13.877Z,993.07
2017-11-06T06:34:20.790Z,993.08
2017-11-06T06:35:27.553Z,993.08
2017-11-06T06:36:34.368Z,993.20
2017-11-06T06:37:41.173Z,993.05
2017-11-06T06:38:48.010Z,992.96
2017-11-06T06:39:54.761Z,993.02
2017-11-06T06:41:01.593Z,993.00
2017-11-06T06:42:08.365Z,993.10
2017-11-06T06:43:15.346Z,993.14
2017-11-06T06:44:22.149Z,993.11
2017-11-06T06:45:28.977Z,993.16
2017-11-06T06:46:35.954Z,993.12
2017-11-06T06:47:42.842Z,993.15
2017-11-06T06:48:49.698Z,993.11
2017-11-06T06:49:56.493Z,993.14
2017-11-06T06:51:03.458Z,993.10
2017-11-06T06:52:10.433Z,993.02
2017-11-06T06:53:17.106Z,993.08
2017-11-06T06:54:23.952Z,993.09
2017-11-06T06:55:30.864Z,993.09
2017-11-06T06:56:37.870Z,993.11
2017-11-06T06:57:44.821Z,993.09
2017-11-06T06:58:51.837Z,993.07
2017-11-06T06:59:58.794Z,993.05
2017-11-06T07:01:05.516Z,993.10
2017-11-06T07:02:12.398Z,993.14
2017-11-06T07:03:19.410Z,993.21
2017-11-06T07:04:26.390Z,993.31
2017-11-06T07:05:33.282Z,993.32
2017-11-06T07:06:40.286Z,993.30
2017-11-06T07:07:47.328Z,993.23
2017-11-06T07:08:54.337Z,993.23
2017-11-06T07:10:01.326Z,993.27
2017-11-06T07:11:08.193Z,993.25
2017-11-06T07:12:15.146Z,993.28
2017-11-06T07:13:22.070Z,993.40
2017-11-06T07:14:28.898Z,993.33
2017-11-06T07:15:35.938Z,993.34
2017-11-06T07:16:42.773Z,993.27
2017-11-06T07:17:49.722Z,993.34
2017-11-06T07:18:56.766Z,993.32
2017-11-06T07:20:03.690Z,993.40
2017-11-06T07:21:10.470Z,993.30
2017-11-06T07:22:17.244Z,993.38
2017-11-06T07:23:24.024Z,993.38
2017-11-06T07:24:30.805Z,993.41
2017-11-06T07:25:37.758Z,993.49
2017-11-06T07:26:44.601Z,993.49
2017-11-06T07:27:51.376Z,993.49
2017-11-06T07:28:58.149Z,993.58
2017-11-06T07:30:05.035Z,993.56
2017-11-06T07:31:11.948Z,993.56
2017-11-06T07:32:18.709Z,993.62
2017-11-06T07:33:25.449Z,993.60
2017-11-06T07:34:32.311Z,993.67
2017-11-06T07:35:39.222Z,993.60
2017-11-06T07:36:46.218Z,993.63
2017-11-06T07:37:53.053Z,993.59
2017-11-06T07:38:59.885Z,993.55
2017-11-06T07:40:06.992Z,993.59
2017-11-06T07:41:13.989Z,993.57
2017-11-06T07:42:20.740Z,993.61
2017-11-06T07:43:27.608Z,993.70
2017-11-06T07:44:34.489Z,993.64
2017-11-06T07:45:41.455Z,993.58
2017-11-06T07:46:48.193Z,993.67
2017-11-06T07:47:55.028Z,993.64
2017-11-06T07:49:01.896Z,993.65
2017-11-06T07:50:08.993Z,993.67
2017-11-06T07:51:16.210Z,993.64
2017-11-06T07:52:22.600Z,993.64
2017-11-06T07:53:29.405Z,993.64
2017-11-06T07:54:36.321Z,993.70
2017-11-06T07:55:43.233Z,993.76
2017-11-06T07:56:50.068Z,993.82
2017-11-06T07:57:56.825Z,993.77
2017-11-06T07:59:03.817Z,993.96
2017-11-06T08:00:10.760Z,993.86
2017-11-06T08:01:17.552Z,993.89
2017-11-06T08:02:24.425Z,993.80
2017-11-06T08:03:31.383Z,993.94
2017-11-06T08:04:38.357Z,993.90
2017-11-06T08:05:45.428Z,993.86
2017-11-06T08:06:52.252Z,993.95
2017-11-06T08:07:59.058Z,994.00
2017-11-06T08:09:05.837Z,994.02
2017-11-06T08:10:12.733Z,993.95
2017-11-06T08:11:19.742Z,993.97
2017-11-06T08:12:26.609Z,994.05
2017-11-06T08:13:33.682Z,994.01
2017-11-06T08:14:40.643Z,994.00
2017-11-06T08:15:47.598Z,993.99
2017-11-06T08:16:54.609Z,994.02
2017-11-06T08:18:01.487Z,994.06
2017-11-06T08:19:08.285Z,994.07
2017-11-06T08:20:15.165Z,994.13
2017-11-06T08:21:22.061Z,994.14
2017-11-06T08:22:29.106Z,994.18
2017-11-06T08:23:36.184Z,994.12
2017-11-06T08:24:43.230Z,994.19
2017-11-06T08:25:50.285Z,994.14
2017-11-06T08:26:57.195Z,994.13
2017-11-06T08:28:04.162Z,994.12
2017-11-06T08:29:11.062Z,994.20
2017-11-06T08:30:18.162Z,994.24
2017-11-06T08:31:24.681Z,994.21
2017-11-06T08:32:31.613Z,994.25
2017-11-06T08:33:38.602Z,994.18
2017-11-06T08:34:45.468Z,994.16
2017-11-06T08:35:52.532Z,994.17
2017-11-06T08:36:59.534Z,994.15
2017-11-06T08:38:06.408Z,994.20
2017-11-06T08:39:13.511Z,994.06
2017-11-06T08:40:20.426Z,994.11
2017-11-06T08:41:27.319Z,994.07
2017-11-06T08:42:34.019Z,994.10
2017-11-06T08:43:41.144Z,994.13
2017-11-06T08:44:48.034Z,994.13
2017-11-06T08:45:55.026Z,994.14
2017-11-06T08:47:01.767Z,994.13
2017-11-06T08:48:08.798Z,994.12
2017-11-06T08:49:15.565Z,994.16
2017-11-06T08:50:22.376Z,994.11
2017-11-06T08:51:29.262Z,994.11
2017-11-06T08:52:36.053Z,994.18
2017-11-06T08:53:43.135Z,994.16
2017-11-06T08:54:50.003Z,994.10
2017-11-06T08:55:56.761Z,994.18
2017-11-06T08:57:03.559Z,994.13
2017-11-06T08:58:10.565Z,994.16
2017-11-06T08:59:17.585Z,994.16
2017-11-06T09:00:24.374Z,994.12
2017-11-06T09:01:31.230Z,994.17
2017-11-06T09:02:38.039Z,994.21
2017-11-06T09:03:45.035Z,994.14
2017-11-06T09:04:51.942Z,994.20
2017-11-06T09:05:58.864Z,994.17
2017-11-06T09:07:05.671Z,994.17
2017-11-06T09:08:12.653Z,994.23
2017-11-06T09:09:19.575Z,994.16
2017-11-06T09:10:26.384Z,994.23
2017-11-06T09:11:33.346Z,994.20
2017-11-06T09:12:40.121Z,994.30
2017-11-06T09:13:47.089Z,994.28
2017-11-06T09:14:53.950Z,994.26
2017-11-06T09:16:00.886Z,994.29
2017-11-06T09:17:07.805Z,994.30
2017-11-06T09:18:14.646Z,994.28
2017-11-06T09:19:21.481Z,994.27
2017-11-06T09:20:28.345Z,994.32
2017-11-06T09:21:35.220Z,994.22
2017-11-06T09:22:42.105Z,994.25
2017-11-06T09:23:48.877Z,994.30
2017-11-06T09:24:55.749Z,994.23
2017-11-06T09:26:02.581Z,994.23
2017-11-06T09:27:09.450Z,994.29
2017-11-06T09:28:16.370Z,994.24
2017-11-06T09:29:23.293Z,994.23
2017-11-06T09:30:30.162Z,994.28
2017-11-06T09:31:37.122Z,994.26
2017-11-06T09:32:43.985Z,994.28
2017-11-06T09:33:50.753Z,994.28
2017-11-06T09:34:57.617Z,994.29
2017-11-06T09:36:04.617Z,994.29
2017-11-06T09:37:11.467Z,994.33
2017-11-06T09:38:18.334Z,994.29
2017-11-06T09:39:25.133Z,994.31
2017-11-06T09:40:32.070Z,994.35
2017-11-06T09:41:39.000Z,994.32
2017-11-06T09:42:45.917Z,994.35
2017-11-06T09:43:52.776Z,994.34
2017-11-06T09:44:59.606Z,994.34
2017-11-06T09:46:06.671Z,994.39
2017-11-06T09:47:13.472Z,994.36
2017-11-06T09:48:20.420Z,994.34
2017-11-06T09:49:27.246Z,994.39
2017-11-06T09:50:34.185Z,994.39
2017-11-06T09:51:41.204Z,994.42
2017-11-06T09:52:48.119Z,994.40
2017-11-06T09:53:55.022Z,994.38
2017-11-06T09:55:01.790Z,994.48
2017-11-06T09:56:08.873Z,994.44
2017-11-06T09:57:15.881Z,994.39
2017-11-06T09:58:22.798Z,994.51
2017-11-06T09:59:29.713Z,994.51
2017-11-06T10:00:36.528Z,994.46
2017-11-06T10:01:43.581Z,994.48
2017-11-06T10:02:50.378Z,994.50
2017-11-06T10:03:57.310Z,994.54
2017-11-06T10:05:04.279Z,994.47
2017-11-06T10:06:11.332Z,994.60
2017-11-06T10:07:18.393Z,994.49
2017-11-06T10:08:25.321Z,994.53
2017-11-06T10:09:32.162Z,994.47
2017-11-06T10:10:38.954Z,994.55
2017-11-06T10:11:45.892Z,994.56
2017-11-06T10:12:52.748Z,994.49
2017-11-06T10:13:59.719Z,994.54
2017-11-06T10:15:06.558Z,994.60
2017-11-06T10:16:13.526Z,994.48
2017-11-06T10:17:20.478Z,994.54
2017-11-06T10:18:27.531Z,994.55
2017-11-06T10:19:34.382Z,994.52
2017-11-06T10:20:41.384Z,994.57
2017-11-06T10:21:48.653Z,994.67
2017-11-06T10:22:54.970Z,994.59
2017-11-06T10:24:01.838Z,994.59
2017-11-06T10:25:08.811Z,994.59
2017-11-06T10:26:15.921Z,994.60
2017-11-06T10:27:22.774Z,994.68
2017-11-06T10:28:29.545Z,994.64
2017-11-06T10:29:36.494Z,994.64
2017-11-06T10:30:43.457Z,994.64
2017-11-06T10:31:50.352Z,994.63
2017-11-06T10:32:57.377Z,994.64
2017-11-06T10:34:04.217Z,994.59
2017-11-06T10:35:11.125Z,994.63
2017-11-06T10:36:18.037Z,994.54
2017-11-06T10:37:24.982Z,994.63
2017-11-06T10:38:31.782Z,994.62
2017-11-06T10:39:38.564Z,994.61
2017-11-06T10:40:45.591Z,994.63
2017-11-06T10:41:52.597Z,994.63
2017-11-06T10:42:59.513Z,994.58
2017-11-06T10:44:06.280Z,994.62
2017-11-06T10:45:13.297Z,994.54
2017-11-06T10:46:20.326Z,994.57
2017-11-06T10:47:27.254Z,994.55
2017-11-06T10:48:34.151Z,994.51
2017-11-06T10:49:41.013Z,994.58
2017-11-06T10:50:47.812Z,994.60
2017-11-06T10:51:54.912Z,994.48
2017-11-06T10:53:02.028Z,994.55
2017-11-06T10:54:08.992Z,994.44
2017-11-06T10:55:16.074Z,994.50
2017-11-06T10:56:23.208Z,994.49
2017-11-06T10:57:30.091Z,994.46
2017-11-06T10:58:36.761Z,994.45
2017-11-06T10:59:43.197Z,994.50
2017-11-06T11:00:50.240Z,994.46
2017-11-06T11:01:57.209Z,994.40
2017-11-06T11:03:04.184Z,994.47
2017-11-06T11:04:11.090Z,994.49
2017-11-06T11:05:18.110Z,994.51
2017-11-06T11:06:25.047Z,994.55
2017-11-06T11:07:31.941Z,994.50
2017-11-06T11:08:38.902Z,994.45
2017-11-06T11:09:45.968Z,994.57
2017-11-06T11:10:52.955Z,994.58
2017-11-06T11:11:59.845Z,994.52
2017-11-06T11:13:07.063Z,994.57
2017-11-06T11:14:14.006Z,994.55
2017-11-06T11:15:21.060Z,994.56
2017-11-06T11:16:28.086Z,994.66
2017-11-06T11:17:35.126Z,994.64
2017-11-06T11:18:42.138Z,994.54
2017-11-06T11:19:49.042Z,994.64
2017-11-06T11:20:56.156Z,994.58
2017-11-06T11:22:02.962Z,994.60
2017-11-06T11:23:09.765Z,994.61
2017-11-06T11:24:16.697Z,994.61
2017-11-06T11:25:23.659Z,994.61
2017-11-06T11:26:30.642Z,994.58
2017-11-06T11:27:37.473Z,994.62
2017-11-06T11:28:44.498Z,994.66
2017-11-06T11:29:51.474Z,994.47
2017-11-06T11:30:58.434Z,994.52
2017-11-06T11:32:05.177Z,994.49
2017-11-06T11:33:12.082Z,994.53
2017-11-06T11:34:18.890Z,994.53
2017-11-06T11:35:25.847Z,994.46
2017-11-06T11:36:32.852Z,994.42
2017-11-06T11:37:39.583Z,994.35
2017-11-06T11:38:46.492Z,994.47
2017-11-06T11:39:53.453Z,994.48
2017-11-06T11:41:00.268Z,994.50
2017-11-06T11:42:07.249Z,994.42
2017-11-06T11:43:14.055Z,994.55
2017-11-06T11:44:21.129Z,994.50
2017-11-06T11:45:28.190Z,994.50
2017-11-06T11:46:35.005Z,994.53
2017-11-06T11:47:41.973Z,994.46
2017-11-06T11:48:48.779Z,994.43
2017-11-06T11:49:55.526Z,994.53
2017-11-06T11:51:02.389Z,994.57
2017-11-06T11:52:10.398Z,994.51
2017-11-06T11:53:16.309Z,994.45
2017-11-06T11:54:23.134Z,994.46
2017-11-06T11:55:30.081Z,994.47
2017-11-06T11:56:36.801Z,994.48
2017-11-06T11:57:43.523Z,994.52
2017-11-06T11:58:50.375Z,994.49
2017-11-06T11:59:57.209Z,994.62
2017-11-06T12:01:04.402Z,994.57
2017-11-06T12:02:11.281Z,994.51
2017-11-06T12:03:18.181Z,994.59
2017-11-06T12:04:24.983Z,994.52
2017-11-06T12:05:31.708Z,994.58
2017-11-06T12:06:38.578Z,994.57
2017-11-06T12:07:45.530Z,994.59
2017-11-06T12:08:52.281Z,994.57
2017-11-06T12:09:59.325Z,994.60
2017-11-06T12:11:06.224Z,994.64
2017-11-06T12:12:13.126Z,994.64
2017-11-06T12:13:20.071Z,994.61
2017-11-06T12:14:26.997Z,994.63
2017-11-06T12:15:34.158Z,994.67
2017-11-06T12:16:41.063Z,994.69
2017-11-06T12:17:48.168Z,994.63
2017-11-06T12:18:54.865Z,994.66
2017-11-06T12:20:01.896Z,994.60
2017-11-06T12:21:09.189Z,994.62
2017-11-06T12:22:15.608Z,994.65
2017-11-06T12:23:22.641Z,994.67
2017-11-06T12:24:29.460Z,994.60
2017-11-06T12:25:36.227Z,994.60
2017-11-06T12:26:43.069Z,994.71
2017-11-06T12:27:49.957Z,994.66
2017-11-06T12:28:56.945Z,994.69
2017-11-06T12:30:03.753Z,994.70
2017-11-06T12:31:10.657Z,994.77
2017-11-06T12:32:17.524Z,994.73
2017-11-06T12:33:24.619Z,994.73
2017-11-06T12:34:31.406Z,994.71
2017-11-06T12:35:38.316Z,994.84
2017-11-06T12:36:45.329Z,994.81
2017-11-06T12:37:52.263Z,994.69
2017-11-06T12:38:59.057Z,994.82
2017-11-06T12:40:06.010Z,994.79
2017-11-06T12:41:12.736Z,994.74
2017-11-06T12:42:19.542Z,994.81
2017-11-06T12:43:26.491Z,994.81
2017-11-06T12:44:33.265Z,994.80
2017-11-06T12:45:40.066Z,994.85
2017-11-06T12:46:46.899Z,994.85
2017-11-06T12:47:53.784Z,994.79
2017-11-06T12:49:00.768Z,994.79
2017-11-06T12:50:07.693Z,994.83
2017-11-06T12:51:14.654Z,994.86
2017-11-06T12:52:21.514Z,994.78
2017-11-06T12:53:28.485Z,994.74
2017-11-06T12:54:35.262Z,994.79
2017-11-06T12:55:42.095Z,994.78
2017-11-06T12:56:49.094Z,994.73
2017-11-06T12:57:55.900Z,994.82
2017-11-06T12:59:02.702Z,994.75
2017-11-06T13:00:09.433Z,994.78
2017-11-06T13:01:16.195Z,994.76
2017-11-06T13:02:22.965Z,994.84
2017-11-06T13:03:29.905Z,994.84
2017-11-06T13:04:36.770Z,994.85
2017-11-06T13:05:43.569Z,994.87
2017-11-06T13:06:52.481Z,994.88
2017-11-06T13:07:57.327Z,994.83
2017-11-06T13:09:08.421Z,994.89
2017-11-06T13:10:11.273Z,994.82
2017-11-06T13:11:18.133Z,994.83
2017-11-06T13:12:24.889Z,994.88
2017-11-06T13:13:31.737Z,994.83
2017-11-06T13:14:38.640Z,994.83
2017-11-06T13:15:45.650Z,994.78
2017-11-06T13:16:52.460Z,994.85
2017-11-06T13:17:59.533Z,994.86
2017-11-06T13:19:06.492Z,994.83
2017-11-06T13:20:13.354Z,994.86
2017-11-06T13:21:20.316Z,994.92
2017-11-06T13:22:27.113Z,994.92
2017-11-06T13:23:33.876Z,994.90
2017-11-06T13:24:40.834Z,994.92
2017-11-06T13:25:47.814Z,994.92
2017-11-06T13:26:54.769Z,994.94
2017-11-06T13:28:01.526Z,994.97
2017-11-06T13:29:08.489Z,994.95
2017-11-06T13:30:15.237Z,994.85
2017-11-06T13:31:22.122Z,994.89
2017-11-06T13:32:28.901Z,994.94
2017-11-06T13:33:35.794Z,994.99
2017-11-06T13:34:42.614Z,994.98
2017-11-06T13:35:49.561Z,994.98
2017-11-06T13:36:56.522Z,994.97
2017-11-06T13:38:03.498Z,994.98
2017-11-06T13:39:10.490Z,995.02
2017-11-06T13:40:17.593Z,995.02
2017-11-06T13:41:24.511Z,995.09
2017-11-06T13:42:31.502Z,995.13
2017-11-06T13:43:38.213Z,995.10
2017-11-06T13:44:45.015Z,995.10
2017-11-06T13:45:51.909Z,995.14
2017-11-06T13:46:58.698Z,995.15
2017-11-06T13:48:05.656Z,995.18
2017-11-06T13:49:12.632Z,995.21
2017-11-06T13:50:19.333Z,995.20
2017-11-06T13:51:26.157Z,995.19
2017-11-06T13:52:32.993Z,995.32
2017-11-06T13:53:39.751Z,995.25
2017-11-06T13:54:46.609Z,995.17
2017-11-06T13:55:53.498Z,995.32